sensor_id;sensor_type;location;lat;lon;timestamp;temperature;humidity
53800;DHT22;39708;53.210;6.948;2022-11-21T00:01:17;-0.70;99.90
53800;DHT22;39708;53.210;6.948;2022-11-21T00:03:43;-0.60;99.90
53800;DHT22;39708;53.210;6.948;2022-11-21T00:06:09;-0.60;99.90
53800;DHT22;39708;53.210;6.948;2022-11-21T00:08:35;-0.60;99.90
53800;DHT22;39708;53.210;6.948;2022-11-21T00:11:00;-0.60;99.90
53800;DHT22;39708;53.210;6.948;2022-11-21T00:13:26;-0.50;99.90
53800;DHT22;39708;53.210;6.948;2022-11-21T00:15:52;0.20;99.90
53800;DHT22;39708;53.210;6.948;2022-11-21T00:18:17;-0.50;99.90
53800;DHT22;39708;53.210;6.948;2022-11-21T00:20:43;0.90;99.90
53800;DHT22;39708;53.210;6.948;2022-11-21T00:23:09;-0.50;99.90
53800;DHT22;39708;53.210;6.948;2022-11-21T00:25:36;-0.50;99.90
53800;DHT22;39708;53.210;6.948;2022-11-21T00:28:02;-0.50;99.90
53800;DHT22;39708;53.210;6.948;2022-11-21T00:30:28;-0.50;99.90
53800;DHT22;39708;53.210;6.948;2022-11-21T00:32:53;-0.50;99.90
53800;DHT22;39708;53.210;6.948;2022-11-21T00:35:19;-0.50;99.90
53800;DHT22;39708;53.210;6.948;2022-11-21T00:37:45;-0.50;99.90
53800;DHT22;39708;53.210;6.948;2022-11-21T00:40:13;-0.60;99.90
53800;DHT22;39708;53.210;6.948;2022-11-21T00:42:39;-0.60;99.90
53800;DHT22;39708;53.210;6.948;2022-11-21T00:45:05;-0.70;99.90
53800;DHT22;39708;53.210;6.948;2022-11-21T00:47:30;-0.70;99.90
53800;DHT22;39708;53.210;6.948;2022-11-21T00:49:56;-0.70;99.90
53800;DHT22;39708;53.210;6.948;2022-11-21T00:52:22;-0.70;99.90
53800;DHT22;39708;53.210;6.948;2022-11-21T00:54:47;-0.60;99.90
53800;DHT22;39708;53.210;6.948;2022-11-21T00:57:13;-0.60;99.90
53800;DHT22;39708;53.210;6.948;2022-11-21T00:59:38;-0.60;99.90
53800;DHT22;39708;53.210;6.948;2022-11-21T01:02:04;-0.60;99.90
53800;DHT22;39708;53.210;6.948;2022-11-21T01:04:31;-0.70;99.90
53800;DHT22;39708;53.210;6.948;2022-11-21T01:06:57;-0.70;99.90
53800;DHT22;39708;53.210;6.948;2022-11-21T01:09:22;-0.80;99.90
53800;DHT22;39708;53.210;6.948;2022-11-21T01:11:48;-0.80;99.90
53800;DHT22;39708;53.210;6.948;2022-11-21T01:14:13;-0.90;99.90
53800;DHT22;39708;53.210;6.948;2022-11-21T01:16:39;-0.90;99.90
53800;DHT22;39708;53.210;6.948;2022-11-21T01:19:05;-0.90;99.90
53800;DHT22;39708;53.210;6.948;2022-11-21T01:21:31;-1.00;99.90
53800;DHT22;39708;53.210;6.948;2022-11-21T01:24:00;-1.10;99.90
53800;DHT22;39708;53.210;6.948;2022-11-21T01:26:28;-1.10;99.90
53800;DHT22;39708;53.210;6.948;2022-11-21T01:28:56;-1.10;99.90
53800;DHT22;39708;53.210;6.948;2022-11-21T01:31:24;-1.20;99.90
53800;DHT22;39708;53.210;6.948;2022-11-21T01:33:51;-1.30;99.90
53800;DHT22;39708;53.210;6.948;2022-11-21T01:36:23;-1.30;99.90
53800;DHT22;39708;53.210;6.948;2022-11-21T01:38:50;-1.40;99.90
53800;DHT22;39708;53.210;6.948;2022-11-21T01:41:22;-1.50;99.90
53800;DHT22;39708;53.210;6.948;2022-11-21T01:43:48;-1.50;99.90
53800;DHT22;39708;53.210;6.948;2022-11-21T01:46:17;-1.50;99.90
53800;DHT22;39708;53.210;6.948;2022-11-21T01:54:32;-1.60;99.90
53800;DHT22;39708;53.210;6.948;2022-11-21T01:57:07;-1.60;99.90
53800;DHT22;39708;53.210;6.948;2022-11-21T02:02:27;-1.60;99.90
53800;DHT22;39708;53.210;6.948;2022-11-21T02:04:55;-1.60;99.90
53800;DHT22;39708;53.210;6.948;2022-11-21T02:07:22;-1.50;99.90
53800;DHT22;39708;53.210;6.948;2022-11-21T02:09:56;-1.50;99.90
53800;DHT22;39708;53.210;6.948;2022-11-21T02:12:35;-1.40;99.90
53800;DHT22;39708;53.210;6.948;2022-11-21T02:15:02;-1.40;99.90
53800;DHT22;39708;53.210;6.948;2022-11-21T02:17:29;-1.30;99.90
53800;DHT22;39708;53.210;6.948;2022-11-21T02:19:57;-1.20;99.90
53800;DHT22;39708;53.210;6.948;2022-11-21T02:25:11;-1.20;99.90
53800;DHT22;39708;53.210;6.948;2022-11-21T02:27:37;-1.10;99.90
53800;DHT22;39708;53.210;6.948;2022-11-21T02:30:05;-1.10;99.90
53800;DHT22;39708;53.210;6.948;2022-11-21T02:32:34;-1.10;99.90
53800;DHT22;39708;53.210;6.948;2022-11-21T02:35:01;-1.10;99.90
53800;DHT22;39708;53.210;6.948;2022-11-21T02:37:27;-1.00;99.90
53800;DHT22;39708;53.210;6.948;2022-11-21T02:39:53;-0.90;99.90
53800;DHT22;39708;53.210;6.948;2022-11-21T02:42:32;-0.90;99.90
53800;DHT22;39708;53.210;6.948;2022-11-21T02:45:15;-0.90;99.90
53800;DHT22;39708;53.210;6.948;2022-11-21T02:47:44;-0.80;99.90
53800;DHT22;39708;53.210;6.948;2022-11-21T02:50:19;-0.80;99.90
53800;DHT22;39708;53.210;6.948;2022-11-21T02:52:44;-0.80;99.90
53800;DHT22;39708;53.210;6.948;2022-11-21T02:55:10;-0.70;99.90
53800;DHT22;39708;53.210;6.948;2022-11-21T02:57:38;-0.70;99.90
53800;DHT22;39708;53.210;6.948;2022-11-21T03:00:05;-0.70;99.90
53800;DHT22;39708;53.210;6.948;2022-11-21T03:02:31;-0.70;99.90
53800;DHT22;39708;53.210;6.948;2022-11-21T03:04:56;-0.70;99.90
53800;DHT22;39708;53.210;6.948;2022-11-21T03:07:22;-0.70;99.90
53800;DHT22;39708;53.210;6.948;2022-11-21T03:09:47;-0.60;99.90
53800;DHT22;39708;53.210;6.948;2022-11-21T03:12:13;-0.60;99.90
53800;DHT22;39708;53.210;6.948;2022-11-21T03:14:39;-0.60;99.90
53800;DHT22;39708;53.210;6.948;2022-11-21T03:17:04;-0.60;99.90
53800;DHT22;39708;53.210;6.948;2022-11-21T03:19:30;-0.60;99.90
53800;DHT22;39708;53.210;6.948;2022-11-21T03:21:56;-0.60;99.90
53800;DHT22;39708;53.210;6.948;2022-11-21T03:24:21;-0.50;99.90
53800;DHT22;39708;53.210;6.948;2022-11-21T03:26:47;-0.50;99.90
53800;DHT22;39708;53.210;6.948;2022-11-21T03:29:13;-0.60;99.90
53800;DHT22;39708;53.210;6.948;2022-11-21T03:31:39;-0.50;99.90
53800;DHT22;39708;53.210;6.948;2022-11-21T03:34:04;-0.50;99.90
53800;DHT22;39708;53.210;6.948;2022-11-21T03:36:30;-0.50;99.90
53800;DHT22;39708;53.210;6.948;2022-11-21T03:38:56;-0.50;99.90
53800;DHT22;39708;53.210;6.948;2022-11-21T03:41:25;-0.50;99.90
53800;DHT22;39708;53.210;6.948;2022-11-21T03:44:12;-0.40;99.90
53800;DHT22;39708;53.210;6.948;2022-11-21T03:46:40;-0.40;99.90
53800;DHT22;39708;53.210;6.948;2022-11-21T03:49:06;-0.40;99.90
53800;DHT22;39708;53.210;6.948;2022-11-21T03:51:32;-0.40;99.90
53800;DHT22;39708;53.210;6.948;2022-11-21T03:53:58;-0.40;99.90
53800;DHT22;39708;53.210;6.948;2022-11-21T03:56:25;-0.40;99.90
53800;DHT22;39708;53.210;6.948;2022-11-21T03:58:51;-0.40;99.90
53800;DHT22;39708;53.210;6.948;2022-11-21T04:01:17;-0.40;99.90
53800;DHT22;39708;53.210;6.948;2022-11-21T04:03:43;-0.40;99.90
53800;DHT22;39708;53.210;6.948;2022-11-21T04:06:10;-0.40;99.90
53800;DHT22;39708;53.210;6.948;2022-11-21T04:08:36;-0.40;99.90
53800;DHT22;39708;53.210;6.948;2022-11-21T04:11:02;-0.40;99.90
53800;DHT22;39708;53.210;6.948;2022-11-21T04:13:28;-0.30;99.90
53800;DHT22;39708;53.210;6.948;2022-11-21T04:15:54;-0.30;99.90
53800;DHT22;39708;53.210;6.948;2022-11-21T04:18:19;-0.40;99.90
53800;DHT22;39708;53.210;6.948;2022-11-21T04:20:45;-0.30;99.90
53800;DHT22;39708;53.210;6.948;2022-11-21T04:23:11;-0.30;99.90
53800;DHT22;39708;53.210;6.948;2022-11-21T04:25:36;-0.40;99.90
53800;DHT22;39708;53.210;6.948;2022-11-21T04:28:03;-0.30;99.90
53800;DHT22;39708;53.210;6.948;2022-11-21T04:30:29;-0.40;99.90
53800;DHT22;39708;53.210;6.948;2022-11-21T04:32:55;-0.40;99.90
53800;DHT22;39708;53.210;6.948;2022-11-21T04:35:22;-0.40;99.90
53800;DHT22;39708;53.210;6.948;2022-11-21T04:37:48;-0.30;99.90
53800;DHT22;39708;53.210;6.948;2022-11-21T04:40:14;-0.30;99.90
53800;DHT22;39708;53.210;6.948;2022-11-21T04:42:44;-0.30;99.90
53800;DHT22;39708;53.210;6.948;2022-11-21T04:45:11;-0.30;99.90
53800;DHT22;39708;53.210;6.948;2022-11-21T04:47:43;-0.30;99.90
53800;DHT22;39708;53.210;6.948;2022-11-21T04:50:11;-0.20;99.90
53800;DHT22;39708;53.210;6.948;2022-11-21T04:52:36;-0.20;99.90
53800;DHT22;39708;53.210;6.948;2022-11-21T04:55:03;-0.30;99.90
53800;DHT22;39708;53.210;6.948;2022-11-21T04:57:29;-0.20;99.90
53800;DHT22;39708;53.210;6.948;2022-11-21T04:59:55;0.20;99.90
53800;DHT22;39708;53.210;6.948;2022-11-21T05:02:21;-0.30;99.90
53800;DHT22;39708;53.210;6.948;2022-11-21T05:04:46;-0.30;99.90
53800;DHT22;39708;53.210;6.948;2022-11-21T05:07:12;1.30;99.90
53800;DHT22;39708;53.210;6.948;2022-11-21T05:09:38;1.00;99.90
53800;DHT22;39708;53.210;6.948;2022-11-21T05:12:04;-0.30;99.90
53800;DHT22;39708;53.210;6.948;2022-11-21T05:14:49;-0.40;99.90
53800;DHT22;39708;53.210;6.948;2022-11-21T05:17:16;-0.50;99.90
53800;DHT22;39708;53.210;6.948;2022-11-21T05:19:41;-0.60;99.90
53800;DHT22;39708;53.210;6.948;2022-11-21T05:22:07;-0.60;99.90
53800;DHT22;39708;53.210;6.948;2022-11-21T05:24:33;-0.70;99.90
53800;DHT22;39708;53.210;6.948;2022-11-21T05:26:58;-0.80;99.90
53800;DHT22;39708;53.210;6.948;2022-11-21T05:29:24;-0.80;99.90
53800;DHT22;39708;53.210;6.948;2022-11-21T05:31:49;-0.90;99.90
53800;DHT22;39708;53.210;6.948;2022-11-21T05:34:15;-0.90;99.90
53800;DHT22;39708;53.210;6.948;2022-11-21T05:36:40;-0.90;99.90
53800;DHT22;39708;53.210;6.948;2022-11-21T05:39:06;-1.30;99.90
53800;DHT22;39708;53.210;6.948;2022-11-21T05:41:32;-1.60;99.90
53800;DHT22;39708;53.210;6.948;2022-11-21T05:43:57;-1.80;99.90
53800;DHT22;39708;53.210;6.948;2022-11-21T05:46:24;-1.90;99.90
53800;DHT22;39708;53.210;6.948;2022-11-21T05:48:52;-1.80;99.90
53800;DHT22;39708;53.210;6.948;2022-11-21T05:51:18;-1.70;99.90
53800;DHT22;39708;53.210;6.948;2022-11-21T05:53:44;-1.60;99.90
53800;DHT22;39708;53.210;6.948;2022-11-21T05:56:13;-1.50;99.90
53800;DHT22;39708;53.210;6.948;2022-11-21T05:58:39;-1.40;99.90
53800;DHT22;39708;53.210;6.948;2022-11-21T06:01:06;-1.50;99.90
53800;DHT22;39708;53.210;6.948;2022-11-21T06:03:37;-2.00;99.90
53800;DHT22;39708;53.210;6.948;2022-11-21T06:08:57;-3.00;99.90
53800;DHT22;39708;53.210;6.948;2022-11-21T06:11:23;-3.10;99.90
53800;DHT22;39708;53.210;6.948;2022-11-21T06:13:48;-3.20;99.90
53800;DHT22;39708;53.210;6.948;2022-11-21T06:16:16;-3.20;99.90
53800;DHT22;39708;53.210;6.948;2022-11-21T06:18:44;-3.30;99.90
53800;DHT22;39708;53.210;6.948;2022-11-21T06:21:14;-3.30;99.90
53800;DHT22;39708;53.210;6.948;2022-11-21T06:23:40;-3.30;99.90
53800;DHT22;39708;53.210;6.948;2022-11-21T06:26:08;-3.40;99.90
53800;DHT22;39708;53.210;6.948;2022-11-21T06:28:37;-3.10;99.90
53800;DHT22;39708;53.210;6.948;2022-11-21T06:31:09;-2.90;99.90
53800;DHT22;39708;53.210;6.948;2022-11-21T06:33:35;-2.30;99.90
53800;DHT22;39708;53.210;6.948;2022-11-21T06:36:02;-2.60;99.90
53800;DHT22;39708;53.210;6.948;2022-11-21T06:38:28;-3.00;99.90
53800;DHT22;39708;53.210;6.948;2022-11-21T06:40:54;-3.20;99.90
53800;DHT22;39708;53.210;6.948;2022-11-21T06:43:19;-3.30;99.90
53800;DHT22;39708;53.210;6.948;2022-11-21T06:45:45;-3.40;99.90
53800;DHT22;39708;53.210;6.948;2022-11-21T06:48:11;-3.50;99.90
53800;DHT22;39708;53.210;6.948;2022-11-21T06:50:36;-3.70;99.90
53800;DHT22;39708;53.210;6.948;2022-11-21T06:53:03;-3.70;99.90
53800;DHT22;39708;53.210;6.948;2022-11-21T06:55:30;-3.60;99.90
53800;DHT22;39708;53.210;6.948;2022-11-21T06:57:59;-3.60;99.90
53800;DHT22;39708;53.210;6.948;2022-11-21T07:00:26;-3.60;99.90
53800;DHT22;39708;53.210;6.948;2022-11-21T07:03:02;-3.40;99.90
53800;DHT22;39708;53.210;6.948;2022-11-21T07:05:28;-2.70;99.90
53800;DHT22;39708;53.210;6.948;2022-11-21T07:08:01;-2.70;99.90
53800;DHT22;39708;53.210;6.948;2022-11-21T07:10:27;-3.20;99.90
53800;DHT22;39708;53.210;6.948;2022-11-21T07:13:00;-3.20;99.90
53800;DHT22;39708;53.210;6.948;2022-11-21T07:15:45;-3.50;99.90
53800;DHT22;39708;53.210;6.948;2022-11-21T07:18:12;-3.80;99.90
53800;DHT22;39708;53.210;6.948;2022-11-21T07:20:38;-3.90;99.90
53800;DHT22;39708;53.210;6.948;2022-11-21T07:23:05;-3.80;99.90
53800;DHT22;39708;53.210;6.948;2022-11-21T07:25:30;-3.70;99.90
53800;DHT22;39708;53.210;6.948;2022-11-21T07:28:02;-3.70;99.90
53800;DHT22;39708;53.210;6.948;2022-11-21T07:30:28;-3.80;99.90
53800;DHT22;39708;53.210;6.948;2022-11-21T07:32:59;-3.60;99.90
53800;DHT22;39708;53.210;6.948;2022-11-21T07:35:25;-3.60;99.90
53800;DHT22;39708;53.210;6.948;2022-11-21T07:37:51;-3.10;99.90
53800;DHT22;39708;53.210;6.948;2022-11-21T07:40:17;-3.00;99.90
53800;DHT22;39708;53.210;6.948;2022-11-21T07:42:43;-2.20;99.90
53800;DHT22;39708;53.210;6.948;2022-11-21T07:45:09;-2.60;99.90
53800;DHT22;39708;53.210;6.948;2022-11-21T07:47:35;-3.00;99.90
53800;DHT22;39708;53.210;6.948;2022-11-21T07:50:01;-3.10;99.90
53800;DHT22;39708;53.210;6.948;2022-11-21T07:52:27;-3.40;99.90
53800;DHT22;39708;53.210;6.948;2022-11-21T07:54:55;-3.50;99.90
53800;DHT22;39708;53.210;6.948;2022-11-21T07:57:21;-3.80;99.90
53800;DHT22;39708;53.210;6.948;2022-11-21T07:59:47;-3.80;99.90
53800;DHT22;39708;53.210;6.948;2022-11-21T08:02:26;-3.80;99.90
53800;DHT22;39708;53.210;6.948;2022-11-21T08:04:52;-3.70;99.90
53800;DHT22;39708;53.210;6.948;2022-11-21T08:07:20;-3.60;99.90
53800;DHT22;39708;53.210;6.948;2022-11-21T08:09:46;-3.60;99.90
53800;DHT22;39708;53.210;6.948;2022-11-21T08:12:12;-3.60;99.90
53800;DHT22;39708;53.210;6.948;2022-11-21T08:14:39;-3.10;99.90
53800;DHT22;39708;53.210;6.948;2022-11-21T08:17:05;-2.70;99.90
53800;DHT22;39708;53.210;6.948;2022-11-21T08:19:31;-2.10;99.90
53800;DHT22;39708;53.210;6.948;2022-11-21T08:21:57;-2.60;99.90
53800;DHT22;39708;53.210;6.948;2022-11-21T08:24:23;-2.80;99.90
53800;DHT22;39708;53.210;6.948;2022-11-21T08:26:49;-3.10;99.90
53800;DHT22;39708;53.210;6.948;2022-11-21T08:29:15;-3.30;99.90
53800;DHT22;39708;53.210;6.948;2022-11-21T08:31:41;-3.40;99.90
53800;DHT22;39708;53.210;6.948;2022-11-21T08:34:08;-3.50;99.90
53800;DHT22;39708;53.210;6.948;2022-11-21T08:36:33;-3.60;99.90
53800;DHT22;39708;53.210;6.948;2022-11-21T08:38:59;-3.50;99.90
53800;DHT22;39708;53.210;6.948;2022-11-21T08:41:25;-3.60;99.90
53800;DHT22;39708;53.210;6.948;2022-11-21T08:44:10;-3.60;99.90
53800;DHT22;39708;53.210;6.948;2022-11-21T08:46:36;-3.50;99.90
53800;DHT22;39708;53.210;6.948;2022-11-21T08:49:07;-3.50;99.90
53800;DHT22;39708;53.210;6.948;2022-11-21T08:51:33;-3.40;99.90
53800;DHT22;39708;53.210;6.948;2022-11-21T08:53:59;-3.40;99.90
53800;DHT22;39708;53.210;6.948;2022-11-21T08:56:25;-2.90;99.90
53800;DHT22;39708;53.210;6.948;2022-11-21T08:58:51;-2.30;99.90
53800;DHT22;39708;53.210;6.948;2022-11-21T09:01:16;-1.90;99.90
53800;DHT22;39708;53.210;6.948;2022-11-21T09:03:42;-1.50;99.90
53800;DHT22;39708;53.210;6.948;2022-11-21T09:06:08;-1.40;99.90
53800;DHT22;39708;53.210;6.948;2022-11-21T09:08:33;-1.10;99.90
53800;DHT22;39708;53.210;6.948;2022-11-21T09:11:07;-1.00;99.90
53800;DHT22;39708;53.210;6.948;2022-11-21T09:13:33;-0.90;99.90
53800;DHT22;39708;53.210;6.948;2022-11-21T09:16:00;-0.30;99.90
53800;DHT22;39708;53.210;6.948;2022-11-21T09:18:44;-0.70;99.90
53800;DHT22;39708;53.210;6.948;2022-11-21T09:21:14;-0.60;99.90
53800;DHT22;39708;53.210;6.948;2022-11-21T09:23:43;-0.40;99.90
53800;DHT22;39708;53.210;6.948;2022-11-21T09:26:09;-0.20;99.90
53800;DHT22;39708;53.210;6.948;2022-11-21T09:28:35;-0.10;99.90
53800;DHT22;39708;53.210;6.948;2022-11-21T09:31:04;0.00;99.90
53800;DHT22;39708;53.210;6.948;2022-11-21T09:33:30;0.10;99.90
53800;DHT22;39708;53.210;6.948;2022-11-21T09:35:59;0.20;99.90
53800;DHT22;39708;53.210;6.948;2022-11-21T09:38:26;0.20;99.90
53800;DHT22;39708;53.210;6.948;2022-11-21T09:40:58;0.30;99.90
53800;DHT22;39708;53.210;6.948;2022-11-21T09:45:53;0.60;99.90
53800;DHT22;39708;53.210;6.948;2022-11-21T09:51:00;0.00;99.90
53800;DHT22;39708;53.210;6.948;2022-11-21T09:53:31;-0.20;99.90
53800;DHT22;39708;53.210;6.948;2022-11-21T09:56:01;-0.40;99.90
53800;DHT22;39708;53.210;6.948;2022-11-21T09:58:35;-0.50;99.90
53800;DHT22;39708;53.210;6.948;2022-11-21T10:01:02;-0.70;99.90
53800;DHT22;39708;53.210;6.948;2022-11-21T10:03:36;-0.70;99.90
53800;DHT22;39708;53.210;6.948;2022-11-21T10:09:15;-0.70;99.90
53800;DHT22;39708;53.210;6.948;2022-11-21T10:17:40;-0.20;99.90
53800;DHT22;39708;53.210;6.948;2022-11-21T10:20:20;-0.20;99.90
53800;DHT22;39708;53.210;6.948;2022-11-21T10:23:13;0.00;99.90
53800;DHT22;39708;53.210;6.948;2022-11-21T10:25:54;0.00;99.90
53800;DHT22;39708;53.210;6.948;2022-11-21T10:28:41;0.20;99.90
53800;DHT22;39708;53.210;6.948;2022-11-21T10:31:10;0.10;99.90
53800;DHT22;39708;53.210;6.948;2022-11-21T10:33:37;0.20;99.90
53800;DHT22;39708;53.210;6.948;2022-11-21T10:38:47;0.20;99.90
53800;DHT22;39708;53.210;6.948;2022-11-21T10:41:39;0.20;99.90
53800;DHT22;39708;53.210;6.948;2022-11-21T10:44:16;0.30;99.90
53800;DHT22;39708;53.210;6.948;2022-11-21T10:47:21;0.30;99.90
53800;DHT22;39708;53.210;6.948;2022-11-21T10:52:41;0.10;99.90
53800;DHT22;39708;53.210;6.948;2022-11-21T10:55:09;0.10;99.90
53800;DHT22;39708;53.210;6.948;2022-11-21T11:02:42;0.10;99.90
53800;DHT22;39708;53.210;6.948;2022-11-21T11:08:07;0.20;99.90
53800;DHT22;39708;53.210;6.948;2022-11-21T11:10:38;0.50;99.90
53800;DHT22;39708;53.210;6.948;2022-11-21T11:13:19;0.80;99.90
53800;DHT22;39708;53.210;6.948;2022-11-21T11:19:25;1.20;99.90
53800;DHT22;39708;53.210;6.948;2022-11-21T11:21:29;1.40;99.90
53800;DHT22;39708;53.210;6.948;2022-11-21T11:29:22;0.80;99.90
53800;DHT22;39708;53.210;6.948;2022-11-21T11:31:55;0.60;99.90
53800;DHT22;39708;53.210;6.948;2022-11-21T11:34:22;1.90;99.90
53800;DHT22;39708;53.210;6.948;2022-11-21T11:37:22;0.40;99.90
53800;DHT22;39708;53.210;6.948;2022-11-21T11:40:27;0.30;99.90
53800;DHT22;39708;53.210;6.948;2022-11-21T11:48:42;0.00;99.90
53800;DHT22;39708;53.210;6.948;2022-11-21T11:51:23;0.20;99.90
53800;DHT22;39708;53.210;6.948;2022-11-21T11:53:54;0.30;99.90
53800;DHT22;39708;53.210;6.948;2022-11-21T11:56:32;0.40;99.90
53800;DHT22;39708;53.210;6.948;2022-11-21T12:01:57;0.80;99.90
53800;DHT22;39708;53.210;6.948;2022-11-21T12:04:28;1.00;99.90
53800;DHT22;39708;53.210;6.948;2022-11-21T12:07:14;1.20;99.90
53800;DHT22;39708;53.210;6.948;2022-11-21T12:15:24;1.90;99.90
53800;DHT22;39708;53.210;6.948;2022-11-21T12:21:12;2.00;99.90
53800;DHT22;39708;53.210;6.948;2022-11-21T12:23:56;1.90;99.90
53800;DHT22;39708;53.210;6.948;2022-11-21T12:26:37;1.90;99.90
53800;DHT22;39708;53.210;6.948;2022-11-21T12:29:32;1.90;99.90
53800;DHT22;39708;53.210;6.948;2022-11-21T12:34:58;2.00;99.90
53800;DHT22;39708;53.210;6.948;2022-11-21T12:46:18;2.20;99.90
53800;DHT22;39708;53.210;6.948;2022-11-21T12:51:53;2.50;99.90
53800;DHT22;39708;53.210;6.948;2022-11-21T12:57:15;2.80;99.90
53800;DHT22;39708;53.210;6.948;2022-11-21T13:05:14;2.30;99.90
53800;DHT22;39708;53.210;6.948;2022-11-21T13:07:41;2.20;99.90
53800;DHT22;39708;53.210;6.948;2022-11-21T13:10:11;2.10;99.90
53800;DHT22;39708;53.210;6.948;2022-11-21T13:12:52;2.10;99.90
53800;DHT22;39708;53.210;6.948;2022-11-21T13:15:27;2.00;99.90
53800;DHT22;39708;53.210;6.948;2022-11-21T13:20:49;1.60;99.90
53800;DHT22;39708;53.210;6.948;2022-11-21T13:25:56;1.50;99.90
53800;DHT22;39708;53.210;6.948;2022-11-21T13:28:27;1.40;99.90
53800;DHT22;39708;53.210;6.948;2022-11-21T13:30:58;1.50;99.90
53800;DHT22;39708;53.210;6.948;2022-11-21T13:38:25;1.70;99.90
53800;DHT22;39708;53.210;6.948;2022-11-21T13:40:50;1.60;99.90
53800;DHT22;39708;53.210;6.948;2022-11-21T13:43:34;1.70;99.90
53800;DHT22;39708;53.210;6.948;2022-11-21T13:46:01;1.70;99.90
53800;DHT22;39708;53.210;6.948;2022-11-21T14:07:27;1.90;99.90
53800;DHT22;39708;53.210;6.948;2022-11-21T14:10:03;1.90;99.90
53800;DHT22;39708;53.210;6.948;2022-11-21T14:12:35;1.80;99.90
53800;DHT22;39708;53.210;6.948;2022-11-21T14:19:58;1.70;99.90
53800;DHT22;39708;53.210;6.948;2022-11-21T14:22:41;1.80;99.90
53800;DHT22;39708;53.210;6.948;2022-11-21T14:25:08;1.90;99.90
53800;DHT22;39708;53.210;6.948;2022-11-21T14:27:38;1.90;99.90
53800;DHT22;39708;53.210;6.948;2022-11-21T14:30:23;2.10;99.90
53800;DHT22;39708;53.210;6.948;2022-11-21T14:32:49;2.20;99.90
53800;DHT22;39708;53.210;6.948;2022-11-21T14:35:21;2.30;99.90
53800;DHT22;39708;53.210;6.948;2022-11-21T14:37:48;2.50;99.90
53800;DHT22;39708;53.210;6.948;2022-11-21T14:40:22;2.40;99.90
53800;DHT22;39708;53.210;6.948;2022-11-21T14:42:48;2.40;99.90
53800;DHT22;39708;53.210;6.948;2022-11-21T14:45:22;2.40;99.90
53800;DHT22;39708;53.210;6.948;2022-11-21T14:47:52;2.30;99.90
53800;DHT22;39708;53.210;6.948;2022-11-21T14:50:26;2.40;99.90
53800;DHT22;39708;53.210;6.948;2022-11-21T14:52:53;2.40;99.90
53800;DHT22;39708;53.210;6.948;2022-11-21T14:55:29;3.10;99.90
53800;DHT22;39708;53.210;6.948;2022-11-21T14:57:58;2.40;99.90
53800;DHT22;39708;53.210;6.948;2022-11-21T15:00:26;2.30;99.90
53800;DHT22;39708;53.210;6.948;2022-11-21T15:02:55;2.30;99.90
53800;DHT22;39708;53.210;6.948;2022-11-21T15:05:27;2.40;99.90
53800;DHT22;39708;53.210;6.948;2022-11-21T15:07:53;2.30;99.90
53800;DHT22;39708;53.210;6.948;2022-11-21T15:10:21;2.30;99.90
53800;DHT22;39708;53.210;6.948;2022-11-21T15:12:57;2.20;99.90
53800;DHT22;39708;53.210;6.948;2022-11-21T15:15:33;2.20;99.90
53800;DHT22;39708;53.210;6.948;2022-11-21T15:18:06;2.20;99.90
53800;DHT22;39708;53.210;6.948;2022-11-21T15:20:32;3.50;99.90
53800;DHT22;39708;53.210;6.948;2022-11-21T15:23:00;2.40;99.90
53800;DHT22;39708;53.210;6.948;2022-11-21T15:25:31;2.50;99.90
53800;DHT22;39708;53.210;6.948;2022-11-21T15:28:12;3.50;99.90
53800;DHT22;39708;53.210;6.948;2022-11-21T15:30:39;2.70;99.90
53800;DHT22;39708;53.210;6.948;2022-11-21T15:33:12;2.50;99.90
53800;DHT22;39708;53.210;6.948;2022-11-21T15:38:39;2.30;99.90
53800;DHT22;39708;53.210;6.948;2022-11-21T15:41:23;2.20;99.90
53800;DHT22;39708;53.210;6.948;2022-11-21T15:46:28;2.60;99.90
53800;DHT22;39708;53.210;6.948;2022-11-21T15:48:59;2.20;99.90
53800;DHT22;39708;53.210;6.948;2022-11-21T15:51:33;2.30;99.90
53800;DHT22;39708;53.210;6.948;2022-11-21T15:53:59;2.20;99.90
53800;DHT22;39708;53.210;6.948;2022-11-21T15:56:25;2.10;99.90
53800;DHT22;39708;53.210;6.948;2022-11-21T15:58:51;2.10;99.90
53800;DHT22;39708;53.210;6.948;2022-11-21T16:01:25;3.50;99.90
53800;DHT22;39708;53.210;6.948;2022-11-21T16:04:12;2.10;99.90
53800;DHT22;39708;53.210;6.948;2022-11-21T16:06:38;2.10;99.90
53800;DHT22;39708;53.210;6.948;2022-11-21T16:09:04;2.00;99.90
53800;DHT22;39708;53.210;6.948;2022-11-21T16:11:35;2.10;99.90
53800;DHT22;39708;53.210;6.948;2022-11-21T16:14:03;2.20;99.90
53800;DHT22;39708;53.210;6.948;2022-11-21T16:16:32;2.20;99.90
53800;DHT22;39708;53.210;6.948;2022-11-21T16:18:59;2.90;99.90
53800;DHT22;39708;53.210;6.948;2022-11-21T16:21:25;2.20;99.90
53800;DHT22;39708;53.210;6.948;2022-11-21T16:23:51;2.20;99.90
53800;DHT22;39708;53.210;6.948;2022-11-21T16:26:17;2.20;99.90
53800;DHT22;39708;53.210;6.948;2022-11-21T16:28:43;2.10;99.90
53800;DHT22;39708;53.210;6.948;2022-11-21T16:31:29;2.20;99.90
53800;DHT22;39708;53.210;6.948;2022-11-21T16:33:55;2.10;99.90
53800;DHT22;39708;53.210;6.948;2022-11-21T16:36:27;2.10;99.90
53800;DHT22;39708;53.210;6.948;2022-11-21T16:38:53;2.20;99.90
53800;DHT22;39708;53.210;6.948;2022-11-21T16:41:21;3.60;99.90
53800;DHT22;39708;53.210;6.948;2022-11-21T16:43:56;2.30;99.90
53800;DHT22;39708;53.210;6.948;2022-11-21T16:46:23;2.70;99.90
53800;DHT22;39708;53.210;6.948;2022-11-21T16:49:04;2.20;99.90
53800;DHT22;39708;53.210;6.948;2022-11-21T16:51:30;2.20;99.90
53800;DHT22;39708;53.210;6.948;2022-11-21T16:53:56;2.20;99.90
53800;DHT22;39708;53.210;6.948;2022-11-21T16:56:22;2.30;99.90
53800;DHT22;39708;53.210;6.948;2022-11-21T16:58:48;2.40;99.90
53800;DHT22;39708;53.210;6.948;2022-11-21T17:01:23;2.50;99.90
53800;DHT22;39708;53.210;6.948;2022-11-21T17:03:52;2.70;99.90
53800;DHT22;39708;53.210;6.948;2022-11-21T17:06:20;2.50;99.90
53800;DHT22;39708;53.210;6.948;2022-11-21T17:08:46;2.40;99.90
53800;DHT22;39708;53.210;6.948;2022-11-21T17:13:47;3.50;99.90
53800;DHT22;39708;53.210;6.948;2022-11-21T17:16:14;2.10;99.90
53800;DHT22;39708;53.210;6.948;2022-11-21T17:18:40;2.10;99.90
53800;DHT22;39708;53.210;6.948;2022-11-21T17:21:08;2.00;99.90
53800;DHT22;39708;53.210;6.948;2022-11-21T17:23:35;2.00;99.90
53800;DHT22;39708;53.210;6.948;2022-11-21T17:26:05;2.00;99.90
53800;DHT22;39708;53.210;6.948;2022-11-21T17:28:32;3.00;99.90
53800;DHT22;39708;53.210;6.948;2022-11-21T17:30:58;2.10;99.90
53800;DHT22;39708;53.210;6.948;2022-11-21T17:33:24;2.10;99.90
53800;DHT22;39708;53.210;6.948;2022-11-21T17:35:50;2.30;99.90
53800;DHT22;39708;53.210;6.948;2022-11-21T17:38:15;2.40;99.90
53800;DHT22;39708;53.210;6.948;2022-11-21T17:40:41;2.50;99.90
53800;DHT22;39708;53.210;6.948;2022-11-21T17:43:07;2.70;99.90
53800;DHT22;39708;53.210;6.948;2022-11-21T17:45:36;2.80;99.90
53800;DHT22;39708;53.210;6.948;2022-11-21T17:48:01;3.50;99.90
53800;DHT22;39708;53.210;6.948;2022-11-21T17:50:27;3.00;99.90
53800;DHT22;39708;53.210;6.948;2022-11-21T17:52:53;3.00;99.90
53800;DHT22;39708;53.210;6.948;2022-11-21T17:55:18;3.00;99.90
53800;DHT22;39708;53.210;6.948;2022-11-21T17:57:44;3.00;99.90
53800;DHT22;39708;53.210;6.948;2022-11-21T18:00:11;3.00;99.90
53800;DHT22;39708;53.210;6.948;2022-11-21T18:02:36;3.10;99.90